createdAt,value
2018-02-20T00:02:03.027Z,83.43
2018-02-20T00:04:30.592Z,90.13
2018-02-20T00:06:58.109Z,81.77
2018-02-20T00:09:25.616Z,82.47
2018-02-20T00:11:53.116Z,97.87
2018-02-20T00:14:21.392Z,89.03
2018-02-20T00:16:49.103Z,85.70
2018-02-20T00:19:16.644Z,85.10
2018-02-20T00:21:44.295Z,79.40
2018-02-20T00:24:12.128Z,82.23
2018-02-20T00:26:39.792Z,84.90
2018-02-20T00:29:07.312Z,87.83
2018-02-20T00:31:35.073Z,79.90
2018-02-20T00:34:02.608Z,79.67
2018-02-20T00:36:30.263Z,81.67
2018-02-20T00:38:57.779Z,82.23
2018-02-20T00:41:25.280Z,82.37
2018-02-20T00:43:52.910Z,77.93
2018-02-20T00:46:20.604Z,78.50
2018-02-20T00:48:48.113Z,81.43
2018-02-20T00:51:16.376Z,82.97
2018-02-20T00:53:44.083Z,92.37
2018-02-20T00:56:11.768Z,97.50
2018-02-20T00:58:39.268Z,81.77
2018-02-20T01:01:06.785Z,83.50
2018-02-20T01:03:34.276Z,91.63
2018-02-20T01:06:01.917Z,85.97
2018-02-20T01:08:29.692Z,75.40
2018-02-20T01:10:57.192Z,73.37
2018-02-20T01:13:24.699Z,74.47
2018-02-20T01:15:52.199Z,76.83
2018-02-20T01:18:20.475Z,78.93
2018-02-20T01:20:47.979Z,78.40
2018-02-20T01:23:15.631Z,74.40
2018-02-20T01:25:43.136Z,74.93
2018-02-20T01:28:10.644Z,88.13
2018-02-20T01:30:38.327Z,71.57
2018-02-20T01:33:05.832Z,69.90
2018-02-20T01:35:33.547Z,82.03
2018-02-20T01:38:01.060Z,72.43
2018-02-20T01:40:28.772Z,73.57
2018-02-20T01:42:56.278Z,71.60
2018-02-20T01:45:23.987Z,70.30
2018-02-20T01:47:51.752Z,74.83
2018-02-20T01:50:19.259Z,87.07
2018-02-20T01:52:46.972Z,72.10
2018-02-20T01:55:15.091Z,78.90
2018-02-20T01:57:42.588Z,82.97
2018-02-20T02:00:10.270Z,79.73
2018-02-20T02:02:38.019Z,66.73
2018-02-20T02:05:05.533Z,72.13
2018-02-20T02:07:33.035Z,66.67
2018-02-20T02:10:00.540Z,78.80
2018-02-20T02:12:28.827Z,73.40
2018-02-20T02:14:57.455Z,76.47
2018-02-20T02:17:25.215Z,78.33
2018-02-20T02:19:52.980Z,69.60
2018-02-20T02:22:20.692Z,74.43
2018-02-20T02:24:48.195Z,79.37
2018-02-20T02:27:15.974Z,73.53
2018-02-20T02:29:43.472Z,76.03
2018-02-20T02:32:10.976Z,78.70
2018-02-20T02:34:38.484Z,73.33
2018-02-20T02:37:06.759Z,85.47
2018-02-20T02:39:34.475Z,67.57
2018-02-20T02:42:02.241Z,81.30
2018-02-20T02:44:29.743Z,77.37
2018-02-20T02:46:57.437Z,84.00
2018-02-20T02:49:24.932Z,72.43
2018-02-20T02:51:54.919Z,80.50
2018-02-20T02:54:22.600Z,73.70
2018-02-20T02:56:50.113Z,64.87
2018-02-20T02:59:17.784Z,69.40
2018-02-20T03:01:45.289Z,65.63
2018-02-20T03:04:13.033Z,72.10
2018-02-20T03:06:40.531Z,74.60
2018-02-20T03:09:08.602Z,79.67
2018-02-20T03:11:36.095Z,72.40
2018-02-20T03:14:03.860Z,75.43
2018-02-20T03:16:31.483Z,75.33
2018-02-20T03:18:58.999Z,74.90
2018-02-20T03:21:26.505Z,79.47
2018-02-20T03:23:54.228Z,77.97
2018-02-20T03:26:21.983Z,78.80
2018-02-20T03:28:49.492Z,80.43
2018-02-20T03:31:16.997Z,71.07
2018-02-20T03:33:44.668Z,70.93
2018-02-20T03:36:12.168Z,72.50
2018-02-20T03:38:39.939Z,71.73
2018-02-20T03:41:07.395Z,77.57
2018-02-20T03:43:35.122Z,78.03
2018-02-20T03:46:04.132Z,90.60
2018-02-20T03:48:31.863Z,72.03
2018-02-20T03:50:59.380Z,65.57
2018-02-20T03:53:27.004Z,69.43
2018-02-20T03:55:54.516Z,83.00
2018-02-20T03:58:22.016Z,82.77
2018-02-20T04:00:49.767Z,72.00
2018-02-20T04:03:17.259Z,69.97
2018-02-20T04:05:44.800Z,79.87
2018-02-20T04:08:12.319Z,76.23
2018-02-20T04:10:40.481Z,81.80
2018-02-20T04:13:07.975Z,74.10
2018-02-20T04:15:35.493Z,77.13
2018-02-20T04:18:03.190Z,69.83
2018-02-20T04:20:30.984Z,74.43
2018-02-20T04:22:58.704Z,80.63
2018-02-20T04:25:26.214Z,82.03
2018-02-20T04:27:53.939Z,79.10
2018-02-20T04:30:21.447Z,79.40
2018-02-20T04:32:49.103Z,72.13
2018-02-20T04:35:16.616Z,70.67
2018-02-20T04:37:44.978Z,69.73
2018-02-20T04:40:12.622Z,74.33
2018-02-20T04:42:40.195Z,73.27
2018-02-20T04:45:07.705Z,76.57
2018-02-20T04:47:35.467Z,78.10
2018-02-20T04:50:03.189Z,75.60
2018-02-20T04:52:30.959Z,83.97
2018-02-20T04:54:58.497Z,83.90
2018-02-20T04:57:26.175Z,70.90
2018-02-20T04:59:53.671Z,85.37
2018-02-20T05:02:21.391Z,77.13
2018-02-20T05:04:48.892Z,84.83
2018-02-20T05:07:16.404Z,77.50
2018-02-20T05:09:44.063Z,81.80
2018-02-20T05:12:11.575Z,87.40
2018-02-20T05:14:39.079Z,68.57
2018-02-20T05:17:06.713Z,80.20
2018-02-20T05:19:34.448Z,69.33
2018-02-20T05:22:02.282Z,73.60
2018-02-20T05:24:30.014Z,73.57
2018-02-20T05:26:57.788Z,85.33
2018-02-20T05:29:25.339Z,75.40
2018-02-20T05:31:52.851Z,96.67
2018-02-20T05:34:21.392Z,98.17
2018-02-20T05:36:48.905Z,88.83
2018-02-20T05:39:16.567Z,77.63
2018-02-20T05:41:44.088Z,77.90
2018-02-20T05:44:13.111Z,78.03
2018-02-20T05:46:40.923Z,81.60
2018-02-20T05:49:08.432Z,69.33
2018-02-20T05:51:36.704Z,74.97
2018-02-20T05:54:04.206Z,74.33
2018-02-20T05:56:31.698Z,71.70
2018-02-20T05:58:59.372Z,70.70
2018-02-20T06:01:27.676Z,67.03
2018-02-20T06:03:55.237Z,74.60
2018-02-20T06:06:24.199Z,76.20
2018-02-20T06:08:51.695Z,66.50
2018-02-20T06:11:19.214Z,69.17
2018-02-20T06:13:47.484Z,70.30
2018-02-20T06:16:15.228Z,77.77
2018-02-20T06:18:43.160Z,75.40
2018-02-20T06:21:10.690Z,63.50
2018-02-20T06:23:38.196Z,88.17
2018-02-20T06:26:05.691Z,60.73
2018-02-20T06:28:33.208Z,144.27
2018-02-20T06:31:00.706Z,123.50
2018-02-20T06:33:28.980Z,80.77
2018-02-20T06:35:56.654Z,83.50
2018-02-20T06:38:24.166Z,69.93
2018-02-20T06:40:51.668Z,77.97
2018-02-20T06:43:19.367Z,84.90
2018-02-20T06:45:47.147Z,73.70
2018-02-20T06:48:14.651Z,75.00
2018-02-20T06:50:42.346Z,77.37
2018-02-20T06:53:09.839Z,72.00
2018-02-20T06:55:37.956Z,73.80
2018-02-20T06:58:05.455Z,74.80
2018-02-20T07:00:33.165Z,88.60
2018-02-20T07:03:00.669Z,70.57
2018-02-20T07:05:28.327Z,72.90
2018-02-20T07:07:55.973Z,74.33
2018-02-20T07:10:23.468Z,77.13
2018-02-20T07:12:51.024Z,71.53
2018-02-20T07:15:18.548Z,75.73
2018-02-20T07:17:46.840Z,77.23
2018-02-20T07:20:14.617Z,72.07
2018-02-20T07:22:42.116Z,83.13
2018-02-20T07:25:09.656Z,68.90
2018-02-20T07:27:37.155Z,77.40
2018-02-20T07:30:04.658Z,71.90
2018-02-20T07:32:32.208Z,83.03
2018-02-20T07:34:59.725Z,75.90
2018-02-20T07:37:27.342Z,78.40
2018-02-20T07:39:54.851Z,68.10
2018-02-20T07:42:22.375Z,82.33
2018-02-20T07:44:50.051Z,77.27
2018-02-20T07:47:17.784Z,67.83
2018-02-20T07:49:45.279Z,77.47
2018-02-20T07:52:12.789Z,78.83
2018-02-20T07:54:40.542Z,64.97
2018-02-20T07:57:08.054Z,86.27
2018-02-20T07:59:35.935Z,83.83
2018-02-20T08:02:03.496Z,158.80
2018-02-20T08:04:30.986Z,102.80
2018-02-20T08:06:58.491Z,114.53
2018-02-20T08:09:26.108Z,86.37
2018-02-20T08:11:53.662Z,88.03
2018-02-20T08:14:21.272Z,75.43
2018-02-20T08:16:49.808Z,77.30
2018-02-20T08:19:17.322Z,90.90
2018-02-20T08:21:45.033Z,72.20
2018-02-20T08:24:12.563Z,72.10
2018-02-20T08:26:40.035Z,76.27
2018-02-20T08:29:07.601Z,80.47
2018-02-20T08:31:35.098Z,73.60
2018-02-20T08:34:02.609Z,78.70
2018-02-20T08:36:30.114Z,86.83
2018-02-20T08:38:57.801Z,74.53
2018-02-20T08:41:25.300Z,72.13
2018-02-20T08:43:54.430Z,71.30
2018-02-20T08:46:22.699Z,67.53
2018-02-20T08:48:50.407Z,71.07
2018-02-20T08:51:18.715Z,71.87
2018-02-20T08:53:47.157Z,69.60
2018-02-20T08:56:14.660Z,62.10
2018-02-20T08:58:42.166Z,75.00
2018-02-20T09:01:09.668Z,71.37
2018-02-20T09:03:37.300Z,74.97
2018-02-20T09:06:05.372Z,68.17
2018-02-20T09:08:32.880Z,68.80
2018-02-20T09:11:00.568Z,81.47
2018-02-20T09:13:28.088Z,75.50
2018-02-20T09:15:55.803Z,74.33
2018-02-20T09:18:23.303Z,72.87
2018-02-20T09:20:50.805Z,78.43
2018-02-20T09:23:18.438Z,71.13
2018-02-20T09:25:45.932Z,66.27
2018-02-20T09:28:13.437Z,73.17
2018-02-20T09:30:40.948Z,84.53
2018-02-20T09:33:08.825Z,62.00
2018-02-20T09:35:36.387Z,56.80
2018-02-20T09:38:03.884Z,53.47
2018-02-20T09:40:31.621Z,57.60
2018-02-20T09:42:59.379Z,69.60
2018-02-20T09:45:27.132Z,57.83
2018-02-20T09:47:54.640Z,53.27
2018-02-20T09:50:22.536Z,61.13
2018-02-20T09:52:50.299Z,56.10
2018-02-20T09:55:17.791Z,58.70
2018-02-20T09:57:45.335Z,51.23
2018-02-20T10:00:13.139Z,52.10
2018-02-20T10:02:40.635Z,55.83
2018-02-20T10:05:08.504Z,47.57
2018-02-20T10:07:35.982Z,44.97
2018-02-20T10:10:03.517Z,50.20
2018-02-20T10:12:31.028Z,53.77
2018-02-20T10:14:58.534Z,50.50
2018-02-20T10:17:26.041Z,47.03
2018-02-20T10:19:53.548Z,58.30
2018-02-20T10:22:21.058Z,53.53
2018-02-20T10:24:48.562Z,54.33
2018-02-20T10:27:16.071Z,53.93
2018-02-20T10:29:43.808Z,60.63
2018-02-20T10:32:11.581Z,56.90
2018-02-20T10:34:39.091Z,54.57
2018-02-20T10:37:06.604Z,48.50
2018-02-20T10:39:34.204Z,46.63
2018-02-20T10:42:01.714Z,51.03
2018-02-20T10:44:29.477Z,55.67
2018-02-20T10:46:57.005Z,49.53
2018-02-20T10:49:24.684Z,58.93
2018-02-20T10:51:52.569Z,50.47
2018-02-20T10:54:20.212Z,50.03
2018-02-20T10:56:47.986Z,53.27
2018-02-20T10:59:15.505Z,54.20
2018-02-20T11:01:43.497Z,61.57
2018-02-20T11:04:10.991Z,55.63
2018-02-20T11:06:38.611Z,58.20
2018-02-20T11:09:06.132Z,52.30
2018-02-20T11:11:33.630Z,59.20
2018-02-20T11:14:01.407Z,55.37
2018-02-20T11:16:28.932Z,53.40
2018-02-20T11:18:56.421Z,47.03
2018-02-20T11:21:23.928Z,93.20
2018-02-20T11:23:51.437Z,87.37
2018-02-20T11:26:18.991Z,122.60
2018-02-20T11:28:46.635Z,64.60
2018-02-20T11:31:14.211Z,55.23
2018-02-20T11:33:41.774Z,64.17
2018-02-20T11:36:09.261Z,73.90
2018-02-20T11:38:36.950Z,64.17
2018-02-20T11:41:04.419Z,79.80
2018-02-20T11:43:32.080Z,65.57
2018-02-20T11:45:59.582Z,72.97
2018-02-20T11:48:27.090Z,67.33
2018-02-20T11:50:54.782Z,65.70
2018-02-20T11:53:22.293Z,65.03
2018-02-20T11:55:50.002Z,69.07
2018-02-20T11:58:17.511Z,69.83
2018-02-20T12:00:45.012Z,66.77
2018-02-20T12:03:12.668Z,66.37
2018-02-20T12:05:40.858Z,72.90
2018-02-20T12:08:08.574Z,67.60
2018-02-20T12:10:36.868Z,73.10
2018-02-20T12:13:04.376Z,64.33
2018-02-20T12:15:32.112Z,59.17
2018-02-20T12:17:59.907Z,65.57
2018-02-20T12:20:27.661Z,62.27
2018-02-20T12:22:56.666Z,64.70
2018-02-20T12:25:24.216Z,67.73
2018-02-20T12:27:51.724Z,72.50
2018-02-20T12:30:19.306Z,66.60
2018-02-20T12:32:46.810Z,63.17
2018-02-20T12:35:14.323Z,62.73
2018-02-20T12:37:41.826Z,70.20
2018-02-20T12:40:09.408Z,65.83
2018-02-20T12:42:36.929Z,71.37
2018-02-20T12:45:04.701Z,64.67
2018-02-20T12:47:32.205Z,73.67
2018-02-20T12:49:59.879Z,61.57
2018-02-20T12:52:27.438Z,68.90
2018-02-20T12:54:55.103Z,71.23
2018-02-20T12:57:22.614Z,64.73
2018-02-20T12:59:51.206Z,72.27
2018-02-20T13:02:18.708Z,77.70
2018-02-20T13:04:46.460Z,71.40
2018-02-20T13:07:13.973Z,68.93
2018-02-20T13:09:41.673Z,69.67
2018-02-20T13:12:09.461Z,75.63
2018-02-20T13:14:37.257Z,71.90
2018-02-20T13:17:04.714Z,70.73
2018-02-20T13:19:32.227Z,75.37
2018-02-20T13:21:59.950Z,72.73
2018-02-20T13:24:27.618Z,62.03
2018-02-20T13:26:55.342Z,70.03
2018-02-20T13:29:22.861Z,75.10
2018-02-20T13:31:50.371Z,67.47
2018-02-20T13:34:17.880Z,87.87
2018-02-20T13:36:45.392Z,78.93
2018-02-20T13:39:13.798Z,72.20
2018-02-20T13:41:41.375Z,81.00
2018-02-20T13:44:08.897Z,60.97
2018-02-20T13:46:38.835Z,66.20
2018-02-20T13:49:06.515Z,68.10
2018-02-20T13:51:34.270Z,68.27
2018-02-20T13:54:02.043Z,64.77
2018-02-20T13:56:29.563Z,58.50
2018-02-20T13:58:57.443Z,67.53
2018-02-20T14:01:24.978Z,71.43
2018-02-20T14:03:52.483Z,67.83
2018-02-20T14:06:19.988Z,59.50
2018-02-20T14:08:47.675Z,68.20
2018-02-20T14:11:15.184Z,67.73
2018-02-20T14:13:42.794Z,58.93
2018-02-20T14:16:10.356Z,63.93
2018-02-20T14:18:38.158Z,67.00
2018-02-20T14:21:05.903Z,66.67
2018-02-20T14:23:33.424Z,55.47
2018-02-20T14:26:00.934Z,58.53
2018-02-20T14:28:28.560Z,57.90
2018-02-20T14:30:56.073Z,66.23
2018-02-20T14:33:23.776Z,63.00
2018-02-20T14:35:51.563Z,80.37
2018-02-20T14:38:19.075Z,88.83
2018-02-20T14:40:46.770Z,64.20
2018-02-20T14:43:14.547Z,62.43
2018-02-20T14:45:42.064Z,58.23
2018-02-20T14:48:09.615Z,51.37
2018-02-20T14:50:38.186Z,57.93
2018-02-20T14:53:05.684Z,59.07
2018-02-20T14:55:33.338Z,52.73
2018-02-20T14:58:01.447Z,57.23
2018-02-20T15:00:30.027Z,58.93
2018-02-20T15:02:57.552Z,63.40
2018-02-20T15:05:25.052Z,55.20
2018-02-20T15:07:52.773Z,55.57
2018-02-20T15:10:20.263Z,63.80
2018-02-20T15:12:47.778Z,62.80
2018-02-20T15:15:15.439Z,56.40
2018-02-20T15:17:42.939Z,55.00
2018-02-20T15:20:10.455Z,57.20
2018-02-20T15:22:37.955Z,62.73
2018-02-20T15:25:05.470Z,69.77
2018-02-20T15:27:33.092Z,73.03
2018-02-20T15:30:00.833Z,63.20
2018-02-20T15:32:28.331Z,66.53
2018-02-20T15:34:56.060Z,59.83
2018-02-20T15:37:23.823Z,62.90
2018-02-20T15:39:51.351Z,68.57
2018-02-20T15:42:18.883Z,59.93
2018-02-20T15:44:47.160Z,71.07
2018-02-20T15:47:14.742Z,66.20
2018-02-20T15:49:42.400Z,62.60
2018-02-20T15:52:10.119Z,66.77
2018-02-20T15:54:37.828Z,70.40
2018-02-20T15:57:05.541Z,66.97
2018-02-20T15:59:33.056Z,76.43
2018-02-20T16:02:00.963Z,62.87
2018-02-20T16:04:28.616Z,71.27
2018-02-20T16:06:56.401Z,63.30
2018-02-20T16:09:23.982Z,63.60
2018-02-20T16:11:52.129Z,71.23
2018-02-20T16:14:20.472Z,71.77
2018-02-20T16:16:48.050Z,67.70
2018-02-20T16:19:15.653Z,64.50
2018-02-20T16:21:43.237Z,63.13
2018-02-20T16:24:10.788Z,73.70
2018-02-20T16:26:38.490Z,60.87
2018-02-20T16:29:07.599Z,62.97
2018-02-20T16:31:35.880Z,66.27
2018-02-20T16:34:03.959Z,63.60
2018-02-20T16:36:31.470Z,69.77
2018-02-20T16:38:59.021Z,70.70
2018-02-20T16:41:26.606Z,65.73
2018-02-20T16:43:54.837Z,66.70
2018-02-20T16:46:22.344Z,57.30
2018-02-20T16:48:49.876Z,64.93
2018-02-20T16:51:17.638Z,64.33
2018-02-20T16:53:45.415Z,61.73
2018-02-20T16:56:12.926Z,62.27
2018-02-20T16:58:40.432Z,60.50
2018-02-20T17:01:08.051Z,64.90
2018-02-20T17:03:35.556Z,54.70
2018-02-20T17:06:03.187Z,66.10
2018-02-20T17:08:30.755Z,74.73
2018-02-20T17:10:58.283Z,69.33
2018-02-20T17:13:26.490Z,65.03
2018-02-20T17:15:54.047Z,66.53
2018-02-20T17:18:21.548Z,71.43
2018-02-20T17:20:49.065Z,62.60
2018-02-20T17:23:16.726Z,61.43
2018-02-20T17:25:45.365Z,66.77
2018-02-20T17:28:13.183Z,65.07
2018-02-20T17:30:40.936Z,68.87
2018-02-20T17:33:08.444Z,72.87
2018-02-20T17:35:36.528Z,82.67
2018-02-20T17:38:04.231Z,80.13
2018-02-20T17:40:31.742Z,61.77
2018-02-20T17:42:59.459Z,56.67
2018-02-20T17:45:27.000Z,59.43
2018-02-20T17:47:54.682Z,61.03
2018-02-20T17:50:23.943Z,55.40
2018-02-20T17:52:51.468Z,57.03
2018-02-20T17:55:19.196Z,57.17
2018-02-20T17:57:46.955Z,63.63
2018-02-20T18:00:14.479Z,64.20
2018-02-20T18:02:41.990Z,64.30
2018-02-20T18:05:10.264Z,57.23
2018-02-20T18:07:37.770Z,53.50
2018-02-20T18:10:05.310Z,61.40
2018-02-20T18:12:32.868Z,53.67
2018-02-20T18:15:00.405Z,56.27
2018-02-20T18:17:28.233Z,59.37
2018-02-20T18:19:55.782Z,52.50
2018-02-20T18:22:23.716Z,59.07
2018-02-20T18:24:51.436Z,56.87
2018-02-20T18:27:19.208Z,54.80
2018-02-20T18:29:46.720Z,60.00
2018-02-20T18:32:14.416Z,49.73
2018-02-20T18:34:41.924Z,55.73
2018-02-20T18:37:09.434Z,51.07
2018-02-20T18:39:36.943Z,59.07
2018-02-20T18:42:04.551Z,56.20
2018-02-20T18:44:32.268Z,50.87
2018-02-20T18:46:59.887Z,55.30
2018-02-20T18:49:27.399Z,56.57
2018-02-20T18:51:55.169Z,56.10
2018-02-20T18:54:22.738Z,52.43
2018-02-20T18:56:50.304Z,57.80
2018-02-20T18:59:17.852Z,57.13
2018-02-20T19:01:45.385Z,51.77
2018-02-20T19:04:12.954Z,62.27
2018-02-20T19:06:41.283Z,52.07
2018-02-20T19:09:08.874Z,62.93
2018-02-20T19:11:36.489Z,61.50
2018-02-20T19:14:04.250Z,57.23
2018-02-20T19:16:32.010Z,54.83
2018-02-20T19:19:01.318Z,56.93
2018-02-20T19:21:29.031Z,63.90
2018-02-20T19:23:56.567Z,66.20
2018-02-20T19:26:24.085Z,65.63
2018-02-20T19:28:51.620Z,66.93
2018-02-20T19:31:19.852Z,70.40
2018-02-20T19:33:49.324Z,69.93
2018-02-20T19:36:17.204Z,72.47
2018-02-20T19:38:44.723Z,72.47
2018-02-20T19:41:12.428Z,69.47
2018-02-20T19:43:39.951Z,67.00
2018-02-20T19:46:07.456Z,66.23
2018-02-20T19:48:35.104Z,76.30
2018-02-20T19:51:02.624Z,57.67
2018-02-20T19:53:30.134Z,67.27
2018-02-20T19:55:58.412Z,73.47
2018-02-20T19:58:25.952Z,61.73
2018-02-20T20:00:53.616Z,59.03
2018-02-20T20:03:21.128Z,73.67
2018-02-20T20:05:48.647Z,66.40
2018-02-20T20:08:16.931Z,62.40
2018-02-20T20:10:44.454Z,63.70
2018-02-20T20:13:11.980Z,57.23
2018-02-20T20:15:39.499Z,54.07
2018-02-20T20:18:07.965Z,53.67
2018-02-20T20:20:37.114Z,59.63
2018-02-20T20:23:03.126Z,65.43
2018-02-20T20:25:30.648Z,59.07
2018-02-20T20:27:58.434Z,57.13
2018-02-20T20:30:27.417Z,62.33
2018-02-20T20:32:54.924Z,54.47
2018-02-20T20:35:22.436Z,55.20
2018-02-20T20:37:50.715Z,56.97
2018-02-20T20:40:18.211Z,63.33
2018-02-20T20:42:45.912Z,62.17
2018-02-20T20:45:14.252Z,53.33
2018-02-20T20:47:41.764Z,55.40
2018-02-20T20:50:10.111Z,59.43
2018-02-20T20:52:37.644Z,64.43
2018-02-20T20:55:05.218Z,55.40
2018-02-20T20:57:32.748Z,53.20
2018-02-20T21:00:00.258Z,56.17
2018-02-20T21:02:27.992Z,55.77
2018-02-20T21:04:55.511Z,55.80
2018-02-20T21:07:23.036Z,51.93
2018-02-20T21:09:50.646Z,57.67
2018-02-20T21:12:18.161Z,56.93
2018-02-20T21:14:45.981Z,49.53
2018-02-20T21:17:13.509Z,56.73
2018-02-20T21:19:41.040Z,60.17
2018-02-20T21:22:08.599Z,52.07
2018-02-20T21:24:36.114Z,52.57
2018-02-20T21:27:03.699Z,105.10
2018-02-20T21:29:31.212Z,56.97
2018-02-20T21:32:00.639Z,57.43
2018-02-20T21:34:28.689Z,57.13
2018-02-20T21:36:56.187Z,52.93
2018-02-20T21:39:23.732Z,59.17
2018-02-20T21:41:51.236Z,57.63
2018-02-20T21:44:18.746Z,54.33
2018-02-20T21:46:46.248Z,59.03
2018-02-20T21:49:14.287Z,62.63
2018-02-20T21:51:43.307Z,51.50
2018-02-20T21:54:11.047Z,46.90
2018-02-20T21:56:38.540Z,53.90
2018-02-20T21:59:06.058Z,48.03
2018-02-20T22:01:33.576Z,52.07
2018-02-20T22:04:01.076Z,56.43
2018-02-20T22:06:29.345Z,48.47
2018-02-20T22:08:56.968Z,47.07
2018-02-20T22:11:24.699Z,42.97
2018-02-20T22:13:52.243Z,48.43
2018-02-20T22:16:19.748Z,53.50
2018-02-20T22:18:47.407Z,63.87
2018-02-20T22:21:14.938Z,50.40
2018-02-20T22:23:43.935Z,58.33
2018-02-20T22:26:11.445Z,51.83
2018-02-20T22:28:39.120Z,44.80
2018-02-20T22:31:06.627Z,45.17
2018-02-20T22:33:34.132Z,56.00
2018-02-20T22:36:01.773Z,56.20
2018-02-20T22:38:29.289Z,45.93
2018-02-20T22:40:57.011Z,52.13
2018-02-20T22:43:24.516Z,47.43
2018-02-20T22:45:52.220Z,50.47
2018-02-20T22:48:19.734Z,51.20
2018-02-20T22:50:47.435Z,50.60
2018-02-20T22:53:14.942Z,46.17
2018-02-20T22:55:42.655Z,44.60
2018-02-20T22:58:10.423Z,49.40
2018-02-20T23:00:37.941Z,50.10
2018-02-20T23:03:05.439Z,57.03
2018-02-20T23:05:33.006Z,48.93
2018-02-20T23:08:00.701Z,49.83
2018-02-20T23:10:28.967Z,48.40
2018-02-20T23:12:56.473Z,46.40
2018-02-20T23:15:23.980Z,47.07
2018-02-20T23:17:51.489Z,50.60
2018-02-20T23:20:19.076Z,45.90
2018-02-20T23:22:46.592Z,47.30
2018-02-20T23:25:14.105Z,48.33
2018-02-20T23:27:41.771Z,45.93
2018-02-20T23:30:09.280Z,50.70
2018-02-20T23:32:36.952Z,43.60
2018-02-20T23:35:04.727Z,50.60
2018-02-20T23:37:32.236Z,50.10
2018-02-20T23:39:59.743Z,45.40
2018-02-20T23:42:28.024Z,48.23
2018-02-20T23:44:55.560Z,48.63
2018-02-20T23:47:23.236Z,43.47
2018-02-20T23:49:51.012Z,47.40
2018-02-20T23:52:18.768Z,48.33
2018-02-20T23:54:46.288Z,45.17
2018-02-20T23:57:13.797Z,46.40
2018-02-20T23:59:41.403Z,45.23
